Quetzalcoatl International Airport
MMNL : now visible

Airfield :











YOU CAN JOIN US ON...

 
LOGIN :

Register | Disclaimer

   EN    FR    IT 

 









Legend :    VFR   Marginal VFR   IFR   Intensive IFR   Very Intensive IFR
Visi :
Ceiling :
>= 8 km
>= 3000ft
5 to 8 km
1000 to 3000 ft
1500m to 5 km
500 to 1000 ft
800 to 1500m
200 to 500 ft
< 800m
< 200 ft
Symbols :   Thunderstorms  Fog  Heavy snow  Heavy precipitations  Wind > 20 kt






- Airport Elevation : 484 ft
- IATA code : NLD


MMNL - Quetzalcoatl International

CURRENT METAR :
  • 202042Z 01015KT 2SM -DZ BR OVC006 10/10 A3038 RMK SLP281 52007 943 60035 8/7//

EXPIRED METARs :
  • 201944Z 02012KT 1SM -DZ BR BKN004 OVC008 11/11 A3038 RMK 60025 8/7//
  • 201841Z 36013KT 2SM -DZ BR BKN005 OVC008 12/12 A3036 RMK 60015 8/7//

TAF AMD TAF MMNL
Valid from the 20 at 20:00 until the 21 at 18:00 UTC


201958Z 2020/2118 02012KT 1SM DZ BR BKN004 OVC008
TEMPO 2020/2024 36010G20KT
FM210200 02015KT 4SM -RA BR BKN010 OVC015
FM210900 03012KT 5SM BR HZ SCT015 BKN020 OVC040
FM211500 04010KT 6SM HZ SCT020 BKN060



MET'MAP, your aeronautical weather chart ! - Copyright ORBIFLY December 2007 - Disclaimer

ORBIFLY MET'MAP TEAM :

Programming & Development : Alexandra Zaïnal
Concept & original design : Baudouin d'Aumeries
Assistance for programming : Marc-Olivier Méhu
Technical & hardware support : Manuel Goepfert

Contact : metmap@orbifly.com




SOURCES & CREDITS :

   NOAA       Earth
Advisory